sensor_id;sensor_type;location;lat;lon;timestamp;P1;durP1;ratioP1;P2;durP2;ratioP2
7501;SDS011;3792;47.740;7.606;2022-10-03T00:02:07;2.20;;;0.20;;
7501;SDS011;3792;47.740;7.606;2022-10-03T00:04:53;1.53;;;0.30;;
7501;SDS011;3792;47.740;7.606;2022-10-03T00:07:32;0.30;;;0.30;;
7501;SDS011;3792;47.740;7.606;2022-10-03T00:10:14;0.20;;;0.20;;
7501;SDS011;3792;47.740;7.606;2022-10-03T00:12:54;0.20;;;0.20;;
7501;SDS011;3792;47.740;7.606;2022-10-03T00:15:33;1.17;;;0.60;;
7501;SDS011;3792;47.740;7.606;2022-10-03T00:18:08;0.60;;;0.60;;
7501;SDS011;3792;47.740;7.606;2022-10-03T00:20:50;1.53;;;1.43;;
7501;SDS011;3792;47.740;7.606;2022-10-03T00:23:32;3.90;;;2.23;;
7501;SDS011;3792;47.740;7.606;2022-10-03T00:26:07;2.53;;;2.03;;
7501;SDS011;3792;47.740;7.606;2022-10-03T00:31:53;2.80;;;2.53;;
7501;SDS011;3792;47.740;7.606;2022-10-03T00:34:27;4.87;;;3.67;;
7501;SDS011;3792;47.740;7.606;2022-10-03T00:37:18;14.73;;;4.33;;
7501;SDS011;3792;47.740;7.606;2022-10-03T00:40:03;5.37;;;4.80;;
7501;SDS011;3792;47.740;7.606;2022-10-03T00:46:10;5.67;;;5.17;;
7501;SDS011;3792;47.740;7.606;2022-10-03T00:55:06;4.97;;;4.30;;
7501;SDS011;3792;47.740;7.606;2022-10-03T00:57:48;4.23;;;3.83;;
7501;SDS011;3792;47.740;7.606;2022-10-03T01:00:37;4.17;;;3.80;;
7501;SDS011;3792;47.740;7.606;2022-10-03T01:03:09;5.10;;;4.60;;
7501;SDS011;3792;47.740;7.606;2022-10-03T01:05:54;5.03;;;4.53;;
7501;SDS011;3792;47.740;7.606;2022-10-03T01:08:45;6.23;;;5.03;;
7501;SDS011;3792;47.740;7.606;2022-10-03T01:11:39;4.70;;;3.83;;
7501;SDS011;3792;47.740;7.606;2022-10-03T01:14:31;3.83;;;3.53;;
7501;SDS011;3792;47.740;7.606;2022-10-03T01:17:13;3.67;;;3.37;;
7501;SDS011;3792;47.740;7.606;2022-10-03T01:20:00;4.43;;;4.03;;
7501;SDS011;3792;47.740;7.606;2022-10-03T01:25:41;5.60;;;4.73;;
7501;SDS011;3792;47.740;7.606;2022-10-03T01:28:31;6.20;;;4.00;;
7501;SDS011;3792;47.740;7.606;2022-10-03T01:31:27;5.27;;;4.17;;
7501;SDS011;3792;47.740;7.606;2022-10-03T01:34:01;5.23;;;4.37;;
7501;SDS011;3792;47.740;7.606;2022-10-03T01:36:35;5.30;;;4.60;;
7501;SDS011;3792;47.740;7.606;2022-10-03T01:39:12;6.67;;;4.87;;
7501;SDS011;3792;47.740;7.606;2022-10-03T01:41:47;5.90;;;5.23;;
7501;SDS011;3792;47.740;7.606;2022-10-03T01:44:25;4.67;;;4.27;;
7501;SDS011;3792;47.740;7.606;2022-10-03T01:46:57;5.13;;;4.63;;
7501;SDS011;3792;47.740;7.606;2022-10-03T01:49:41;4.40;;;4.00;;
7501;SDS011;3792;47.740;7.606;2022-10-03T01:52:14;5.83;;;4.20;;
7501;SDS011;3792;47.740;7.606;2022-10-03T01:54:49;4.37;;;3.70;;
7501;SDS011;3792;47.740;7.606;2022-10-03T01:57:24;5.13;;;3.33;;
7501;SDS011;3792;47.740;7.606;2022-10-03T02:00:01;4.03;;;3.23;;
7501;SDS011;3792;47.740;7.606;2022-10-03T02:02:32;4.10;;;3.33;;
7501;SDS011;3792;47.740;7.606;2022-10-03T02:05:05;3.03;;;2.73;;
7501;SDS011;3792;47.740;7.606;2022-10-03T02:07:39;3.07;;;2.77;;
7501;SDS011;3792;47.740;7.606;2022-10-03T02:10:12;3.47;;;3.17;;
7501;SDS011;3792;47.740;7.606;2022-10-03T02:12:49;3.20;;;2.90;;
7501;SDS011;3792;47.740;7.606;2022-10-03T02:15:26;3.00;;;2.70;;
7501;SDS011;3792;47.740;7.606;2022-10-03T02:18:00;3.53;;;2.57;;
7501;SDS011;3792;47.740;7.606;2022-10-03T02:20:40;3.07;;;2.70;;
7501;SDS011;3792;47.740;7.606;2022-10-03T02:23:22;3.53;;;2.53;;
7501;SDS011;3792;47.740;7.606;2022-10-03T02:25:53;3.03;;;2.67;;
7501;SDS011;3792;47.740;7.606;2022-10-03T02:28:41;2.33;;;2.10;;
7501;SDS011;3792;47.740;7.606;2022-10-03T02:31:31;2.67;;;2.47;;
7501;SDS011;3792;47.740;7.606;2022-10-03T02:34:24;3.40;;;2.27;;
7501;SDS011;3792;47.740;7.606;2022-10-03T02:40:25;2.20;;;2.10;;
7501;SDS011;3792;47.740;7.606;2022-10-03T02:53:20;2.33;;;2.07;;
7501;SDS011;3792;47.740;7.606;2022-10-03T02:56:31;2.67;;;2.10;;
7501;SDS011;3792;47.740;7.606;2022-10-03T03:06:12;2.80;;;1.90;;
7501;SDS011;3792;47.740;7.606;2022-10-03T03:09:16;2.33;;;2.13;;
7501;SDS011;3792;47.740;7.606;2022-10-03T03:18:02;4.20;;;3.43;;
7501;SDS011;3792;47.740;7.606;2022-10-03T03:20:38;3.80;;;3.30;;
7501;SDS011;3792;47.740;7.606;2022-10-03T03:23:30;4.30;;;3.73;;
7501;SDS011;3792;47.740;7.606;2022-10-03T03:29:13;5.03;;;3.93;;
7501;SDS011;3792;47.740;7.606;2022-10-03T03:31:50;5.43;;;4.30;;
7501;SDS011;3792;47.740;7.606;2022-10-03T03:34:28;5.07;;;4.57;;
7501;SDS011;3792;47.740;7.606;2022-10-03T03:37:03;6.20;;;5.57;;
7501;SDS011;3792;47.740;7.606;2022-10-03T03:39:42;8.33;;;5.33;;
7501;SDS011;3792;47.740;7.606;2022-10-03T03:42:29;5.43;;;4.93;;
7501;SDS011;3792;47.740;7.606;2022-10-03T03:45:15;6.03;;;5.43;;
7501;SDS011;3792;47.740;7.606;2022-10-03T03:48:06;6.70;;;5.00;;
7501;SDS011;3792;47.740;7.606;2022-10-03T03:50:50;5.47;;;4.70;;
7501;SDS011;3792;47.740;7.606;2022-10-03T03:53:40;6.37;;;5.57;;
7501;SDS011;3792;47.740;7.606;2022-10-03T03:56:35;5.43;;;4.90;;
7501;SDS011;3792;47.740;7.606;2022-10-03T03:59:18;5.30;;;4.80;;
7501;SDS011;3792;47.740;7.606;2022-10-03T04:02:04;6.00;;;5.40;;
7501;SDS011;3792;47.740;7.606;2022-10-03T04:04:44;6.13;;;4.57;;
7501;SDS011;3792;47.740;7.606;2022-10-03T04:07:29;5.40;;;4.90;;
7501;SDS011;3792;47.740;7.606;2022-10-03T04:10:10;5.67;;;4.97;;
7501;SDS011;3792;47.740;7.606;2022-10-03T04:15:58;5.33;;;4.30;;
7501;SDS011;3792;47.740;7.606;2022-10-03T04:19:07;6.87;;;4.50;;
7501;SDS011;3792;47.740;7.606;2022-10-03T04:31:02;6.70;;;6.10;;
7501;SDS011;3792;47.740;7.606;2022-10-03T04:33:42;8.37;;;7.47;;
7501;SDS011;3792;47.740;7.606;2022-10-03T04:39:29;7.73;;;5.80;;
7501;SDS011;3792;47.740;7.606;2022-10-03T04:42:09;7.50;;;6.23;;
7501;SDS011;3792;47.740;7.606;2022-10-03T04:45:01;7.30;;;6.60;;
7501;SDS011;3792;47.740;7.606;2022-10-03T04:47:41;6.73;;;6.13;;
7501;SDS011;3792;47.740;7.606;2022-10-03T04:50:18;7.80;;;7.03;;
7501;SDS011;3792;47.740;7.606;2022-10-03T04:52:56;6.47;;;5.87;;
7501;SDS011;3792;47.740;7.606;2022-10-03T04:55:38;12.03;;;8.37;;
7501;SDS011;3792;47.740;7.606;2022-10-03T04:58:14;8.47;;;7.47;;
7501;SDS011;3792;47.740;7.606;2022-10-03T05:00:53;8.10;;;7.30;;
7501;SDS011;3792;47.740;7.606;2022-10-03T05:03:36;4.30;;;3.90;;
7501;SDS011;3792;47.740;7.606;2022-10-03T05:06:16;4.93;;;3.23;;
7501;SDS011;3792;47.740;7.606;2022-10-03T05:08:54;2.43;;;2.27;;
7501;SDS011;3792;47.740;7.606;2022-10-03T05:11:33;3.30;;;1.37;;
7501;SDS011;3792;47.740;7.606;2022-10-03T05:14:11;1.80;;;1.70;;
7501;SDS011;3792;47.740;7.606;2022-10-03T05:16:54;1.57;;;1.47;;
7501;SDS011;3792;47.740;7.606;2022-10-03T05:19:36;4.23;;;1.60;;
7501;SDS011;3792;47.740;7.606;2022-10-03T05:22:15;2.80;;;2.03;;
7501;SDS011;3792;47.740;7.606;2022-10-03T05:24:49;5.60;;;4.00;;
7501;SDS011;3792;47.740;7.606;2022-10-03T05:27:24;9.67;;;8.10;;
7501;SDS011;3792;47.740;7.606;2022-10-03T05:30:01;12.27;;;10.90;;
7501;SDS011;3792;47.740;7.606;2022-10-03T05:32:34;12.30;;;10.27;;
7501;SDS011;3792;47.740;7.606;2022-10-03T05:35:16;12.00;;;10.07;;
7501;SDS011;3792;47.740;7.606;2022-10-03T05:37:59;12.43;;;10.10;;
7501;SDS011;3792;47.740;7.606;2022-10-03T05:40:41;12.50;;;10.97;;
7501;SDS011;3792;47.740;7.606;2022-10-03T05:43:22;11.57;;;9.87;;
7501;SDS011;3792;47.740;7.606;2022-10-03T05:46:01;11.63;;;9.90;;
7501;SDS011;3792;47.740;7.606;2022-10-03T05:48:40;11.03;;;9.53;;
7501;SDS011;3792;47.740;7.606;2022-10-03T05:51:21;11.53;;;10.10;;
7501;SDS011;3792;47.740;7.606;2022-10-03T05:54:44;9.63;;;8.60;;
7501;SDS011;3792;47.740;7.606;2022-10-03T05:57:29;10.60;;;8.30;;
7501;SDS011;3792;47.740;7.606;2022-10-03T06:00:20;10.53;;;9.00;;
7501;SDS011;3792;47.740;7.606;2022-10-03T06:03:03;10.93;;;8.53;;
7501;SDS011;3792;47.740;7.606;2022-10-03T06:05:59;9.60;;;8.60;;
7501;SDS011;3792;47.740;7.606;2022-10-03T06:08:48;11.17;;;8.97;;
7501;SDS011;3792;47.740;7.606;2022-10-03T06:11:29;9.80;;;8.33;;
7501;SDS011;3792;47.740;7.606;2022-10-03T06:14:19;13.77;;;7.97;;
7501;SDS011;3792;47.740;7.606;2022-10-03T06:17:08;10.57;;;7.40;;
7501;SDS011;3792;47.740;7.606;2022-10-03T06:19:53;10.13;;;8.23;;
7501;SDS011;3792;47.740;7.606;2022-10-03T06:22:46;11.70;;;8.10;;
7501;SDS011;3792;47.740;7.606;2022-10-03T06:28:46;8.07;;;7.27;;
7501;SDS011;3792;47.740;7.606;2022-10-03T06:34:29;9.87;;;7.73;;
7501;SDS011;3792;47.740;7.606;2022-10-03T06:37:26;11.00;;;8.13;;
7501;SDS011;3792;47.740;7.606;2022-10-03T06:40:52;8.97;;;7.93;;
7501;SDS011;3792;47.740;7.606;2022-10-03T06:43:54;11.97;;;9.00;;
7501;SDS011;3792;47.740;7.606;2022-10-03T06:46:58;13.73;;;10.53;;
7501;SDS011;3792;47.740;7.606;2022-10-03T06:50:00;11.87;;;10.27;;
7501;SDS011;3792;47.740;7.606;2022-10-03T06:52:49;15.07;;;10.30;;
7501;SDS011;3792;47.740;7.606;2022-10-03T06:59:06;13.63;;;9.37;;
7501;SDS011;3792;47.740;7.606;2022-10-03T07:05:25;12.40;;;8.10;;
7501;SDS011;3792;47.740;7.606;2022-10-03T07:08:25;10.43;;;8.27;;
7501;SDS011;3792;47.740;7.606;2022-10-03T07:11:22;8.70;;;7.80;;
7501;SDS011;3792;47.740;7.606;2022-10-03T07:17:14;10.93;;;7.93;;
7501;SDS011;3792;47.740;7.606;2022-10-03T07:20:14;8.33;;;7.50;;
7501;SDS011;3792;47.740;7.606;2022-10-03T07:29:17;13.67;;;8.87;;
7501;SDS011;3792;47.740;7.606;2022-10-03T07:32:03;10.53;;;7.50;;
7501;SDS011;3792;47.740;7.606;2022-10-03T07:38:16;10.90;;;7.53;;
7501;SDS011;3792;47.740;7.606;2022-10-03T07:50:48;8.03;;;7.23;;
7501;SDS011;3792;47.740;7.606;2022-10-03T07:53:30;9.67;;;7.40;;
7501;SDS011;3792;47.740;7.606;2022-10-03T07:56:21;8.40;;;7.60;;
7501;SDS011;3792;47.740;7.606;2022-10-03T07:59:17;9.03;;;7.07;;
7501;SDS011;3792;47.740;7.606;2022-10-03T08:02:06;7.83;;;7.00;;
7501;SDS011;3792;47.740;7.606;2022-10-03T08:05:01;8.13;;;5.47;;
7501;SDS011;3792;47.740;7.606;2022-10-03T08:07:51;7.90;;;6.73;;
7501;SDS011;3792;47.740;7.606;2022-10-03T08:10:48;7.80;;;6.90;;
7501;SDS011;3792;47.740;7.606;2022-10-03T08:13:50;8.83;;;6.80;;
7501;SDS011;3792;47.740;7.606;2022-10-03T08:16:46;7.23;;;6.53;;
7501;SDS011;3792;47.740;7.606;2022-10-03T08:19:31;10.30;;;8.17;;
7501;SDS011;3792;47.740;7.606;2022-10-03T08:22:33;8.93;;;6.83;;
7501;SDS011;3792;47.740;7.606;2022-10-03T08:25:19;7.57;;;6.50;;
7501;SDS011;3792;47.740;7.606;2022-10-03T08:28:01;6.30;;;5.70;;
7501;SDS011;3792;47.740;7.606;2022-10-03T08:30:52;10.27;;;6.30;;
7501;SDS011;3792;47.740;7.606;2022-10-03T08:33:47;7.20;;;5.57;;
7501;SDS011;3792;47.740;7.606;2022-10-03T08:36:33;5.67;;;4.87;;
7501;SDS011;3792;47.740;7.606;2022-10-03T08:39:35;6.77;;;5.07;;
7501;SDS011;3792;47.740;7.606;2022-10-03T08:51:59;8.97;;;6.13;;
7501;SDS011;3792;47.740;7.606;2022-10-03T08:58:11;8.80;;;6.03;;
7501;SDS011;3792;47.740;7.606;2022-10-03T09:01:12;9.60;;;6.53;;
7501;SDS011;3792;47.740;7.606;2022-10-03T09:04:01;8.57;;;6.63;;
7501;SDS011;3792;47.740;7.606;2022-10-03T09:07:11;8.67;;;6.20;;
7501;SDS011;3792;47.740;7.606;2022-10-03T09:13:20;6.93;;;5.83;;
7501;SDS011;3792;47.740;7.606;2022-10-03T09:19:35;11.10;;;9.00;;
7501;SDS011;3792;47.740;7.606;2022-10-03T09:25:32;9.40;;;8.40;;
7501;SDS011;3792;47.740;7.606;2022-10-03T09:28:47;10.03;;;8.30;;
7501;SDS011;3792;47.740;7.606;2022-10-03T09:31:50;11.63;;;9.03;;
7501;SDS011;3792;47.740;7.606;2022-10-03T09:34:46;11.17;;;9.57;;
7501;SDS011;3792;47.740;7.606;2022-10-03T09:37:40;11.33;;;8.60;;
7501;SDS011;3792;47.740;7.606;2022-10-03T09:43:45;11.17;;;8.80;;
7501;SDS011;3792;47.740;7.606;2022-10-03T09:46:57;10.97;;;8.73;;
7501;SDS011;3792;47.740;7.606;2022-10-03T09:49:57;9.20;;;7.90;;
7501;SDS011;3792;47.740;7.606;2022-10-03T09:52:52;9.57;;;8.07;;
7501;SDS011;3792;47.740;7.606;2022-10-03T09:55:54;10.20;;;8.10;;
7501;SDS011;3792;47.740;7.606;2022-10-03T09:59:03;10.33;;;8.40;;
7501;SDS011;3792;47.740;7.606;2022-10-03T10:01:44;9.13;;;7.57;;
7501;SDS011;3792;47.740;7.606;2022-10-03T10:19:26;9.10;;;5.97;;
7501;SDS011;3792;47.740;7.606;2022-10-03T10:22:15;7.93;;;6.50;;
7501;SDS011;3792;47.740;7.606;2022-10-03T10:34:04;7.93;;;6.67;;
7501;SDS011;3792;47.740;7.606;2022-10-03T10:37:15;9.10;;;7.67;;
7501;SDS011;3792;47.740;7.606;2022-10-03T10:46:24;9.17;;;8.10;;
7501;SDS011;3792;47.740;7.606;2022-10-03T10:49:49;8.63;;;7.73;;
7501;SDS011;3792;47.740;7.606;2022-10-03T10:53:52;7.90;;;7.10;;
7501;SDS011;3792;47.740;7.606;2022-10-03T11:05:40;6.93;;;5.07;;
7501;SDS011;3792;47.740;7.606;2022-10-03T11:08:43;5.27;;;4.77;;
7501;SDS011;3792;47.740;7.606;2022-10-03T11:21:39;3.83;;;3.53;;
7501;SDS011;3792;47.740;7.606;2022-10-03T11:27:53;3.70;;;3.40;;
7501;SDS011;3792;47.740;7.606;2022-10-03T11:34:12;3.30;;;3.00;;
7501;SDS011;3792;47.740;7.606;2022-10-03T11:37:08;4.00;;;3.60;;
7501;SDS011;3792;47.740;7.606;2022-10-03T11:39:47;4.07;;;3.77;;
7501;SDS011;3792;47.740;7.606;2022-10-03T11:42:25;3.33;;;3.03;;
7501;SDS011;3792;47.740;7.606;2022-10-03T11:45:01;6.70;;;3.23;;
7501;SDS011;3792;47.740;7.606;2022-10-03T11:47:44;4.30;;;2.97;;
7501;SDS011;3792;47.740;7.606;2022-10-03T11:50:27;3.07;;;2.87;;
7501;SDS011;3792;47.740;7.606;2022-10-03T11:53:03;3.10;;;2.90;;
7501;SDS011;3792;47.740;7.606;2022-10-03T11:55:45;6.00;;;4.10;;
7501;SDS011;3792;47.740;7.606;2022-10-03T11:58:24;4.83;;;3.63;;
7501;SDS011;3792;47.740;7.606;2022-10-03T12:01:02;4.20;;;2.87;;
7501;SDS011;3792;47.740;7.606;2022-10-03T12:03:50;5.30;;;2.90;;
7501;SDS011;3792;47.740;7.606;2022-10-03T12:06:26;3.40;;;2.20;;
7501;SDS011;3792;47.740;7.606;2022-10-03T12:09:31;2.80;;;2.63;;
7501;SDS011;3792;47.740;7.606;2022-10-03T12:12:09;3.23;;;2.93;;
7501;SDS011;3792;47.740;7.606;2022-10-03T12:14:44;3.37;;;3.03;;
7501;SDS011;3792;47.740;7.606;2022-10-03T12:17:17;3.57;;;3.27;;
7501;SDS011;3792;47.740;7.606;2022-10-03T12:19:55;3.10;;;2.80;;
7501;SDS011;3792;47.740;7.606;2022-10-03T12:22:35;4.53;;;2.77;;
7501;SDS011;3792;47.740;7.606;2022-10-03T12:25:17;2.97;;;2.77;;
7501;SDS011;3792;47.740;7.606;2022-10-03T12:27:49;2.73;;;2.53;;
7501;SDS011;3792;47.740;7.606;2022-10-03T12:30:25;2.83;;;2.60;;
7501;SDS011;3792;47.740;7.606;2022-10-03T12:33:07;2.33;;;2.13;;
7501;SDS011;3792;47.740;7.606;2022-10-03T12:35:48;3.00;;;2.43;;
7501;SDS011;3792;47.740;7.606;2022-10-03T12:38:30;2.90;;;2.60;;
7501;SDS011;3792;47.740;7.606;2022-10-03T12:41:12;1.50;;;1.40;;
7501;SDS011;3792;47.740;7.606;2022-10-03T12:43:57;2.27;;;1.50;;
7501;SDS011;3792;47.740;7.606;2022-10-03T12:46:36;2.57;;;2.03;;
7501;SDS011;3792;47.740;7.606;2022-10-03T12:49:13;3.27;;;2.40;;
7501;SDS011;3792;47.740;7.606;2022-10-03T12:51:53;1.77;;;1.67;;
7501;SDS011;3792;47.740;7.606;2022-10-03T12:54:29;1.93;;;1.73;;
7501;SDS011;3792;47.740;7.606;2022-10-03T12:57:20;2.73;;;2.53;;
7501;SDS011;3792;47.740;7.606;2022-10-03T13:00:09;3.20;;;2.90;;
7501;SDS011;3792;47.740;7.606;2022-10-03T13:02:46;2.43;;;1.47;;
7501;SDS011;3792;47.740;7.606;2022-10-03T13:05:41;2.33;;;2.00;;
7501;SDS011;3792;47.740;7.606;2022-10-03T13:08:25;1.20;;;1.20;;
7501;SDS011;3792;47.740;7.606;2022-10-03T13:11:08;1.40;;;1.30;;
7501;SDS011;3792;47.740;7.606;2022-10-03T13:13:53;1.40;;;1.40;;
7501;SDS011;3792;47.740;7.606;2022-10-03T13:16:30;1.10;;;1.10;;
7501;SDS011;3792;47.740;7.606;2022-10-03T13:19:01;2.13;;;1.43;;
7501;SDS011;3792;47.740;7.606;2022-10-03T13:21:43;1.80;;;1.70;;
7501;SDS011;3792;47.740;7.606;2022-10-03T13:24:22;2.00;;;1.30;;
7501;SDS011;3792;47.740;7.606;2022-10-03T13:26:59;1.37;;;1.10;;
7501;SDS011;3792;47.740;7.606;2022-10-03T13:29:42;1.40;;;1.17;;
7501;SDS011;3792;47.740;7.606;2022-10-03T13:32:16;1.63;;;1.30;;
7501;SDS011;3792;47.740;7.606;2022-10-03T13:34:53;1.80;;;1.70;;
7501;SDS011;3792;47.740;7.606;2022-10-03T13:38:04;1.50;;;1.50;;
7501;SDS011;3792;47.740;7.606;2022-10-03T13:40:41;1.33;;;1.30;;
7501;SDS011;3792;47.740;7.606;2022-10-03T13:43:12;1.27;;;1.10;;
7501;SDS011;3792;47.740;7.606;2022-10-03T13:45:46;2.30;;;1.30;;
7501;SDS011;3792;47.740;7.606;2022-10-03T13:48:17;1.50;;;1.33;;
7501;SDS011;3792;47.740;7.606;2022-10-03T13:50:48;1.23;;;1.20;;
7501;SDS011;3792;47.740;7.606;2022-10-03T13:53:28;2.77;;;1.20;;
7501;SDS011;3792;47.740;7.606;2022-10-03T13:56:13;2.33;;;1.50;;
7501;SDS011;3792;47.740;7.606;2022-10-03T13:58:51;1.53;;;1.40;;
7501;SDS011;3792;47.740;7.606;2022-10-03T14:01:31;1.20;;;1.10;;
7501;SDS011;3792;47.740;7.606;2022-10-03T14:04:18;2.00;;;1.40;;
7501;SDS011;3792;47.740;7.606;2022-10-03T14:07:06;2.67;;;2.47;;
7501;SDS011;3792;47.740;7.606;2022-10-03T14:09:48;1.30;;;1.30;;
7501;SDS011;3792;47.740;7.606;2022-10-03T14:12:40;1.20;;;1.10;;
7501;SDS011;3792;47.740;7.606;2022-10-03T14:15:21;3.93;;;1.77;;
7501;SDS011;3792;47.740;7.606;2022-10-03T14:18:02;1.70;;;1.60;;
7501;SDS011;3792;47.740;7.606;2022-10-03T14:20:37;1.50;;;1.30;;
7501;SDS011;3792;47.740;7.606;2022-10-03T14:23:28;1.23;;;1.20;;
7501;SDS011;3792;47.740;7.606;2022-10-03T14:26:02;1.57;;;1.47;;
7501;SDS011;3792;47.740;7.606;2022-10-03T14:28:39;1.67;;;1.30;;
7501;SDS011;3792;47.740;7.606;2022-10-03T14:31:14;2.43;;;1.53;;
7501;SDS011;3792;47.740;7.606;2022-10-03T14:33:52;3.30;;;1.60;;
7501;SDS011;3792;47.740;7.606;2022-10-03T14:36:31;2.27;;;1.57;;
7501;SDS011;3792;47.740;7.606;2022-10-03T14:39:18;1.57;;;1.47;;
7501;SDS011;3792;47.740;7.606;2022-10-03T14:44:52;1.73;;;1.63;;
7501;SDS011;3792;47.740;7.606;2022-10-03T14:47:21;1.90;;;1.80;;
7501;SDS011;3792;47.740;7.606;2022-10-03T14:49:50;2.43;;;1.70;;
7501;SDS011;3792;47.740;7.606;2022-10-03T14:52:23;2.00;;;1.77;;
7501;SDS011;3792;47.740;7.606;2022-10-03T14:54:55;2.83;;;1.87;;
7501;SDS011;3792;47.740;7.606;2022-10-03T14:57:31;1.83;;;1.73;;
7501;SDS011;3792;47.740;7.606;2022-10-03T15:00:00;2.07;;;1.87;;
7501;SDS011;3792;47.740;7.606;2022-10-03T15:02:28;2.50;;;1.93;;
7501;SDS011;3792;47.740;7.606;2022-10-03T15:05:01;2.07;;;1.83;;
7501;SDS011;3792;47.740;7.606;2022-10-03T15:07:34;2.23;;;1.97;;
7501;SDS011;3792;47.740;7.606;2022-10-03T15:10:05;2.20;;;2.07;;
7501;SDS011;3792;47.740;7.606;2022-10-03T15:12:38;2.60;;;2.00;;
7501;SDS011;3792;47.740;7.606;2022-10-03T15:15:10;3.00;;;1.77;;
7501;SDS011;3792;47.740;7.606;2022-10-03T15:17:44;4.37;;;2.10;;
7501;SDS011;3792;47.740;7.606;2022-10-03T15:20:14;2.53;;;2.03;;
7501;SDS011;3792;47.740;7.606;2022-10-03T15:22:46;3.70;;;2.30;;
7501;SDS011;3792;47.740;7.606;2022-10-03T15:25:17;2.53;;;2.33;;
7501;SDS011;3792;47.740;7.606;2022-10-03T15:27:50;4.30;;;2.23;;
7501;SDS011;3792;47.740;7.606;2022-10-03T15:30:20;2.90;;;2.40;;
7501;SDS011;3792;47.740;7.606;2022-10-03T15:32:50;2.47;;;2.20;;
7501;SDS011;3792;47.740;7.606;2022-10-03T15:35:21;4.70;;;2.57;;
7501;SDS011;3792;47.740;7.606;2022-10-03T15:37:51;3.93;;;2.63;;
7501;SDS011;3792;47.740;7.606;2022-10-03T15:40:23;4.40;;;2.23;;
7501;SDS011;3792;47.740;7.606;2022-10-03T15:43:02;3.33;;;2.50;;
7501;SDS011;3792;47.740;7.606;2022-10-03T15:45:33;4.10;;;2.30;;
7501;SDS011;3792;47.740;7.606;2022-10-03T15:48:03;3.17;;;1.90;;
7501;SDS011;3792;47.740;7.606;2022-10-03T15:50:38;3.80;;;1.80;;
7501;SDS011;3792;47.740;7.606;2022-10-03T15:53:09;3.83;;;2.50;;
7501;SDS011;3792;47.740;7.606;2022-10-03T15:55:41;4.20;;;1.83;;
7501;SDS011;3792;47.740;7.606;2022-10-03T15:58:17;4.30;;;2.33;;
7501;SDS011;3792;47.740;7.606;2022-10-03T16:00:51;5.10;;;2.90;;
7501;SDS011;3792;47.740;7.606;2022-10-03T16:03:28;3.77;;;2.03;;
7501;SDS011;3792;47.740;7.606;2022-10-03T16:06:02;3.23;;;2.30;;
7501;SDS011;3792;47.740;7.606;2022-10-03T16:08:38;3.57;;;2.33;;
7501;SDS011;3792;47.740;7.606;2022-10-03T16:11:17;3.87;;;2.77;;
7501;SDS011;3792;47.740;7.606;2022-10-03T16:13:50;3.20;;;2.27;;
7501;SDS011;3792;47.740;7.606;2022-10-03T16:16:31;3.77;;;3.10;;
7501;SDS011;3792;47.740;7.606;2022-10-03T16:19:13;3.87;;;2.33;;
7501;SDS011;3792;47.740;7.606;2022-10-03T16:21:54;2.53;;;2.23;;
7501;SDS011;3792;47.740;7.606;2022-10-03T16:24:33;3.57;;;2.50;;
7501;SDS011;3792;47.740;7.606;2022-10-03T16:27:07;3.43;;;2.67;;
7501;SDS011;3792;47.740;7.606;2022-10-03T16:29:42;2.60;;;2.30;;
7501;SDS011;3792;47.740;7.606;2022-10-03T16:32:15;5.23;;;2.93;;
7501;SDS011;3792;47.740;7.606;2022-10-03T16:34:45;4.03;;;2.20;;
7501;SDS011;3792;47.740;7.606;2022-10-03T16:37:15;2.83;;;2.40;;
7501;SDS011;3792;47.740;7.606;2022-10-03T16:39:57;4.50;;;2.77;;
7501;SDS011;3792;47.740;7.606;2022-10-03T16:42:28;2.90;;;2.67;;
7501;SDS011;3792;47.740;7.606;2022-10-03T16:45:05;5.30;;;3.23;;
7501;SDS011;3792;47.740;7.606;2022-10-03T16:47:46;3.20;;;2.90;;
7501;SDS011;3792;47.740;7.606;2022-10-03T16:50:35;2.60;;;2.40;;
7501;SDS011;3792;47.740;7.606;2022-10-03T16:53:07;3.63;;;2.70;;
7501;SDS011;3792;47.740;7.606;2022-10-03T16:55:38;9.50;;;7.30;;
7501;SDS011;3792;47.740;7.606;2022-10-03T16:58:14;15.33;;;10.33;;
7501;SDS011;3792;47.740;7.606;2022-10-03T17:00:50;13.07;;;9.30;;
7501;SDS011;3792;47.740;7.606;2022-10-03T17:03:22;6.93;;;6.07;;
7501;SDS011;3792;47.740;7.606;2022-10-03T17:05:52;6.70;;;4.90;;
7501;SDS011;3792;47.740;7.606;2022-10-03T17:08:25;5.10;;;4.63;;
7501;SDS011;3792;47.740;7.606;2022-10-03T17:10:57;4.67;;;4.23;;
7501;SDS011;3792;47.740;7.606;2022-10-03T17:13:38;8.37;;;4.53;;
7501;SDS011;3792;47.740;7.606;2022-10-03T17:16:12;9.67;;;4.70;;
7501;SDS011;3792;47.740;7.606;2022-10-03T17:18:56;5.60;;;4.43;;
7501;SDS011;3792;47.740;7.606;2022-10-03T17:21:32;5.20;;;4.70;;
7501;SDS011;3792;47.740;7.606;2022-10-03T17:24:04;5.57;;;4.60;;
7501;SDS011;3792;47.740;7.606;2022-10-03T17:26:37;9.23;;;4.93;;
7501;SDS011;3792;47.740;7.606;2022-10-03T17:29:09;7.87;;;4.97;;
7501;SDS011;3792;47.740;7.606;2022-10-03T17:31:44;6.90;;;4.87;;
7501;SDS011;3792;47.740;7.606;2022-10-03T17:34:15;17.20;;;13.10;;
7501;SDS011;3792;47.740;7.606;2022-10-03T17:40:00;10.40;;;5.63;;
7501;SDS011;3792;47.740;7.606;2022-10-03T17:42:42;11.67;;;6.40;;
7501;SDS011;3792;47.740;7.606;2022-10-03T17:45:29;6.10;;;5.43;;
7501;SDS011;3792;47.740;7.606;2022-10-03T17:48:03;6.07;;;5.50;;
7501;SDS011;3792;47.740;7.606;2022-10-03T17:50:36;6.90;;;4.77;;
7501;SDS011;3792;47.740;7.606;2022-10-03T17:53:14;5.77;;;5.20;;
7501;SDS011;3792;47.740;7.606;2022-10-03T17:55:47;6.00;;;5.47;;
7501;SDS011;3792;47.740;7.606;2022-10-03T17:58:21;7.87;;;4.97;;
7501;SDS011;3792;47.740;7.606;2022-10-03T18:00:55;6.13;;;4.63;;
7501;SDS011;3792;47.740;7.606;2022-10-03T18:03:31;5.47;;;4.87;;
7501;SDS011;3792;47.740;7.606;2022-10-03T18:09:06;7.47;;;4.97;;
7501;SDS011;3792;47.740;7.606;2022-10-03T18:11:43;6.70;;;5.17;;
7501;SDS011;3792;47.740;7.606;2022-10-03T18:14:14;5.53;;;4.70;;
7501;SDS011;3792;47.740;7.606;2022-10-03T18:20:21;6.97;;;4.73;;
7501;SDS011;3792;47.740;7.606;2022-10-03T18:23:03;6.57;;;4.77;;
7501;SDS011;3792;47.740;7.606;2022-10-03T18:25:39;9.97;;;5.00;;
7501;SDS011;3792;47.740;7.606;2022-10-03T18:28:30;5.63;;;4.57;;
7501;SDS011;3792;47.740;7.606;2022-10-03T18:31:01;4.63;;;4.10;;
7501;SDS011;3792;47.740;7.606;2022-10-03T18:33:34;4.97;;;4.13;;
7501;SDS011;3792;47.740;7.606;2022-10-03T18:36:16;4.87;;;4.07;;
7501;SDS011;3792;47.740;7.606;2022-10-03T18:38:47;7.03;;;4.07;;
7501;SDS011;3792;47.740;7.606;2022-10-03T18:41:17;4.47;;;4.00;;
7501;SDS011;3792;47.740;7.606;2022-10-03T18:43:44;9.17;;;5.10;;
7501;SDS011;3792;47.740;7.606;2022-10-03T18:46:18;7.53;;;4.17;;
7501;SDS011;3792;47.740;7.606;2022-10-03T18:48:57;6.57;;;4.63;;
7501;SDS011;3792;47.740;7.606;2022-10-03T18:51:34;6.13;;;4.30;;
7501;SDS011;3792;47.740;7.606;2022-10-03T18:54:04;5.60;;;5.10;;
7501;SDS011;3792;47.740;7.606;2022-10-03T18:56:42;8.73;;;4.90;;
7501;SDS011;3792;47.740;7.606;2022-10-03T18:59:13;10.97;;;5.50;;
7501;SDS011;3792;47.740;7.606;2022-10-03T19:01:50;10.23;;;5.60;;
7501;SDS011;3792;47.740;7.606;2022-10-03T19:04:34;5.83;;;5.33;;
7501;SDS011;3792;47.740;7.606;2022-10-03T19:07:10;7.60;;;4.83;;
7501;SDS011;3792;47.740;7.606;2022-10-03T19:10:02;8.57;;;5.27;;
7501;SDS011;3792;47.740;7.606;2022-10-03T19:12:49;7.03;;;4.20;;
7501;SDS011;3792;47.740;7.606;2022-10-03T19:15:20;6.17;;;4.37;;
7501;SDS011;3792;47.740;7.606;2022-10-03T19:18:02;6.87;;;4.90;;
7501;SDS011;3792;47.740;7.606;2022-10-03T19:20:39;6.17;;;5.00;;
7501;SDS011;3792;47.740;7.606;2022-10-03T19:23:10;6.03;;;4.53;;
7501;SDS011;3792;47.740;7.606;2022-10-03T19:25:40;5.20;;;4.40;;
7501;SDS011;3792;47.740;7.606;2022-10-03T19:28:12;6.83;;;5.20;;
7501;SDS011;3792;47.740;7.606;2022-10-03T19:30:44;6.00;;;4.67;;
7501;SDS011;3792;47.740;7.606;2022-10-03T19:33:22;10.90;;;4.97;;
7501;SDS011;3792;47.740;7.606;2022-10-03T19:35:53;10.30;;;5.47;;
7501;SDS011;3792;47.740;7.606;2022-10-03T19:38:25;6.83;;;5.37;;
7501;SDS011;3792;47.740;7.606;2022-10-03T19:40:55;8.03;;;5.03;;
7501;SDS011;3792;47.740;7.606;2022-10-03T19:43:31;7.77;;;5.00;;
7501;SDS011;3792;47.740;7.606;2022-10-03T19:46:22;6.70;;;5.00;;
7501;SDS011;3792;47.740;7.606;2022-10-03T19:51:48;5.17;;;4.27;;
7501;SDS011;3792;47.740;7.606;2022-10-03T19:54:27;10.33;;;4.83;;
7501;SDS011;3792;47.740;7.606;2022-10-03T19:56:57;7.47;;;5.33;;
7501;SDS011;3792;47.740;7.606;2022-10-03T19:59:42;9.37;;;5.57;;